createdAt,value
2022-12-11T00:01:54.240Z,100688.25
2022-12-11T00:04:23.295Z,100694.25
2022-12-11T00:06:51.861Z,100682.38
2022-12-11T00:09:21.662Z,100681.38
2022-12-11T00:11:50.688Z,100675.63
2022-12-11T00:14:19.320Z,100677.66
2022-12-11T00:16:49.351Z,100670.31
2022-12-11T00:19:19.238Z,100683.06
2022-12-11T00:21:48.103Z,100685.38
2022-12-11T00:24:16.839Z,100679.53
2022-12-11T00:26:46.019Z,100679.53
2022-12-11T00:29:15.403Z,100680.28
2022-12-11T00:31:44.635Z,100685.38
2022-12-11T00:34:13.187Z,100678.31
2022-12-11T00:36:43.087Z,100686.69
2022-12-11T00:39:11.638Z,100685.72
2022-12-11T00:41:40.238Z,100676.28
2022-12-11T00:44:08.783Z,100679.81
2022-12-11T00:46:37.588Z,100677.06
2022-12-11T00:49:06.223Z,100681.38
2022-12-11T00:51:34.714Z,100678.97
2022-12-11T00:54:05.053Z,100677.41
2022-12-11T00:56:33.835Z,100683.41
2022-12-11T00:59:02.392Z,100675.75
2022-12-11T01:01:30.978Z,100682.50
2022-12-11T01:03:59.738Z,100671.53
2022-12-11T01:06:29.253Z,100673.19
2022-12-11T01:09:12.170Z,100670.66
2022-12-11T01:11:43.991Z,100671.63
2022-12-11T01:14:13.106Z,100676.75
2022-12-11T01:16:41.723Z,100685.16
2022-12-11T01:19:10.348Z,100680.06
2022-12-11T01:21:38.908Z,100690.47
2022-12-11T01:24:07.945Z,100688.72
2022-12-11T01:26:36.487Z,100689.63
2022-12-11T01:29:06.463Z,100686.94
2022-12-11T01:31:35.038Z,100694.72
2022-12-11T01:34:03.571Z,100695.59
2022-12-11T01:36:32.100Z,100699.94
2022-12-11T01:39:00.639Z,100693.16
2022-12-11T01:41:29.180Z,100688.06
2022-12-11T01:44:03.413Z,100683.84
2022-12-11T01:46:35.093Z,100680.53
2022-12-11T01:49:07.234Z,100684.19
2022-12-11T01:51:41.646Z,100680.78
2022-12-11T01:54:12.558Z,100685.63
2022-12-11T01:56:43.179Z,100690.47
2022-12-11T01:59:14.509Z,100689.38
2022-12-11T02:01:48.865Z,100691.06
2022-12-11T02:04:17.525Z,100689.38
2022-12-11T02:06:48.484Z,100692.03
2022-12-11T02:09:20.268Z,100687.19
2022-12-11T02:11:59.037Z,100683.06
2022-12-11T02:14:33.867Z,100689.09
2022-12-11T02:17:08.245Z,100695.59
2022-12-11T02:19:45.826Z,100696.50
2022-12-11T02:22:21.207Z,100688.97
2022-12-11T02:25:03.798Z,100686.16
2022-12-11T02:27:39.327Z,100694.47
2022-12-11T02:30:12.070Z,100696.16
2022-12-11T02:32:47.423Z,100695.25
2022-12-11T02:35:20.801Z,100695.13
2022-12-11T02:37:52.726Z,100693.34
2022-12-11T02:40:28.139Z,100685.72
2022-12-11T02:42:59.214Z,100678.38
2022-12-11T02:45:30.800Z,100673.94
2022-12-11T02:48:02.740Z,100674.72
2022-12-11T02:50:31.760Z,100677.28
2022-12-11T02:53:02.469Z,100679.81
2022-12-11T02:55:33.122Z,100675.63
2022-12-11T02:58:06.482Z,100677.41
2022-12-11T03:00:36.432Z,100680.72
2022-12-11T03:03:05.940Z,100681.59
2022-12-11T03:05:34.514Z,100680.84
2022-12-11T03:08:03.722Z,100685.94
2022-12-11T03:10:32.302Z,100676.63
2022-12-11T03:13:01.998Z,100675.19
2022-12-11T03:15:41.643Z,100678.97
2022-12-11T03:18:16.772Z,100681.25
2022-12-11T03:20:48.748Z,100683.03
2022-12-11T03:23:23.347Z,100687.25
2022-12-11T03:25:57.447Z,100679.75
2022-12-11T03:28:30.842Z,100683.41
2022-12-11T03:31:06.682Z,100687.72
2022-12-11T03:33:38.909Z,100682.63
2022-12-11T03:36:11.090Z,100681.84
2022-12-11T03:38:45.169Z,100680.19
2022-12-11T03:41:16.046Z,100679.41
2022-12-11T03:43:45.779Z,100685.16
2022-12-11T03:46:17.925Z,100682.84
2022-12-11T03:48:49.890Z,100682.84
2022-12-11T03:51:19.436Z,100671.63
2022-12-11T03:53:49.100Z,100677.00
2022-12-11T03:56:19.294Z,100677.66
2022-12-11T03:58:47.904Z,100669.88
2022-12-11T04:01:17.824Z,100674.97
2022-12-11T04:03:46.487Z,100672.19
2022-12-11T04:06:15.003Z,100674.72
2022-12-11T04:08:43.573Z,100662.22
2022-12-11T04:11:29.546Z,100671.31
2022-12-11T04:14:11.910Z,100663.41
2022-12-11T04:16:41.815Z,100665.38
2022-12-11T04:19:28.597Z,100670.28
2022-12-11T04:22:14.873Z,100669.38
2022-12-11T04:24:43.429Z,100665.91
2022-12-11T04:27:11.963Z,100664.16
2022-12-11T04:29:40.487Z,100649.63
2022-12-11T04:32:10.392Z,100660.28
2022-12-11T04:34:40.778Z,100657.41
2022-12-11T04:37:09.305Z,100663.38
2022-12-11T04:39:37.835Z,100658.50
2022-12-11T04:42:06.422Z,100652.88
2022-12-11T04:44:35.131Z,100656.97
2022-12-11T04:47:03.692Z,100656.75
2022-12-11T04:49:33.595Z,100657.59
2022-12-11T04:52:02.098Z,100656.09
2022-12-11T04:54:30.722Z,100650.75
2022-12-11T04:56:59.239Z,100651.41
2022-12-11T04:59:27.810Z,100656.75
2022-12-11T05:01:56.341Z,100660.94
2022-12-11T05:04:24.872Z,100665.16
2022-12-11T05:06:54.787Z,100665.25
2022-12-11T05:09:23.321Z,100662.72
2022-12-11T05:11:51.920Z,100665.81
2022-12-11T05:14:20.529Z,100657.16
2022-12-11T05:16:49.254Z,100662.25
2022-12-11T05:19:17.781Z,100663.69
2022-12-11T05:21:46.406Z,100652.59
2022-12-11T05:24:16.371Z,100644.94
2022-12-11T05:26:44.966Z,100655.13
2022-12-11T05:29:13.461Z,100655.38
2022-12-11T05:31:42.029Z,100650.41
2022-12-11T05:34:10.592Z,100645.44
2022-12-11T05:36:39.265Z,100654.72
2022-12-11T05:39:07.872Z,100647.06
2022-12-11T05:41:37.748Z,100646.09
2022-12-11T05:44:06.839Z,100649.63
2022-12-11T05:46:35.721Z,100651.94
2022-12-11T05:49:04.411Z,100644.06
2022-12-11T05:51:34.307Z,100642.28
2022-12-11T05:54:03.132Z,100644.94
2022-12-11T05:56:34.143Z,100645.72
2022-12-11T05:59:06.360Z,100643.16
2022-12-11T06:01:37.224Z,100638.50
2022-12-11T06:04:07.418Z,100640.28
2022-12-11T06:06:36.264Z,100637.84
2022-12-11T06:09:06.369Z,100641.06
2022-12-11T06:11:35.995Z,100636.50
2022-12-11T06:14:06.206Z,100634.59
2022-12-11T06:16:34.743Z,100639.56
2022-12-11T06:19:03.370Z,100641.13
2022-12-11T06:21:33.461Z,100636.81
2022-12-11T06:24:05.735Z,100639.34
2022-12-11T06:26:34.320Z,100642.13
2022-12-11T06:29:05.298Z,100643.56
2022-12-11T06:31:38.921Z,100635.78
2022-12-11T06:34:07.538Z,100641.91
2022-12-11T06:36:36.228Z,100635.91
2022-12-11T06:39:05.362Z,100631.78
2022-12-11T06:41:33.977Z,100631.72
2022-12-11T06:44:02.507Z,100639.09
2022-12-11T06:46:31.065Z,100637.34
2022-12-11T06:49:00.968Z,100645.50
2022-12-11T06:51:29.462Z,100642.19
2022-12-11T06:53:58.371Z,100645.16
2022-12-11T06:56:27.025Z,100643.28
2022-12-11T06:58:57.254Z,100646.03
2022-12-11T07:01:28.226Z,100645.28
2022-12-11T07:03:57.914Z,100649.59
2022-12-11T07:06:29.596Z,100653.28
2022-12-11T07:08:58.384Z,100654.19
2022-12-11T07:11:26.947Z,100645.63
2022-12-11T07:13:55.465Z,100647.94
2022-12-11T07:16:24.071Z,100652.16
2022-12-11T07:18:54.455Z,100641.06
2022-12-11T07:21:23.209Z,100648.88
2022-12-11T07:23:53.115Z,100658.09
2022-12-11T07:26:22.850Z,100661.81
2022-12-11T07:28:51.494Z,100666.66
2022-12-11T07:31:23.127Z,100661.03
2022-12-11T07:33:54.794Z,100669.09
2022-12-11T07:36:24.065Z,100663.75
2022-12-11T07:38:54.350Z,100671.25
2022-12-11T07:41:23.705Z,100671.69
2022-12-11T07:43:52.255Z,100675.88
2022-12-11T07:46:23.197Z,100667.59
2022-12-11T07:48:51.847Z,100670.13
2022-12-11T07:51:23.131Z,100667.72
2022-12-11T07:53:53.723Z,100668.59
2022-12-11T07:56:23.329Z,100671.69
2022-12-11T07:58:52.144Z,100663.66
2022-12-11T08:01:22.921Z,100668.53
2022-12-11T08:03:51.956Z,100672.22
2022-12-11T08:06:25.465Z,100671.19
2022-12-11T08:08:56.736Z,100671.94
2022-12-11T08:11:25.961Z,100673.50
2022-12-11T08:13:54.657Z,100676.03
2022-12-11T08:16:23.472Z,100678.59
2022-12-11T08:18:52.427Z,100677.81
2022-12-11T08:21:23.328Z,100677.16
2022-12-11T08:23:53.001Z,100681.13
2022-12-11T08:26:24.988Z,100676.28
2022-12-11T08:28:53.705Z,100678.06
2022-12-11T08:31:23.027Z,100681.38
2022-12-11T08:33:52.167Z,100677.81
2022-12-11T08:36:22.913Z,100677.81
2022-12-11T08:38:52.209Z,100674.09
2022-12-11T08:41:24.064Z,100673.22
2022-12-11T08:43:55.035Z,100680.63
2022-12-11T08:46:25.878Z,100672.22
2022-12-11T08:48:56.200Z,100682.63
2022-12-11T08:51:27.131Z,100681.88
2022-12-11T08:53:56.484Z,100682.34
2022-12-11T08:56:27.219Z,100678.78
2022-12-11T08:58:55.937Z,100676.63
2022-12-11T09:01:26.488Z,100670.88
2022-12-11T09:03:57.057Z,100664.00
2022-12-11T09:06:28.770Z,100668.84
2022-12-11T09:08:59.490Z,100675.31
2022-12-11T09:11:31.225Z,100677.97
2022-12-11T09:14:06.760Z,100682.41
2022-12-11T09:16:39.716Z,100685.13
2022-12-11T09:19:09.689Z,100686.16
2022-12-11T09:21:38.172Z,100683.94
2022-12-11T09:24:07.451Z,100688.41
2022-12-11T09:26:37.370Z,100685.31
2022-12-11T09:29:07.065Z,100676.66
2022-12-11T09:31:38.134Z,100682.25
2022-12-11T09:34:08.371Z,100676.50
2022-12-11T09:36:36.955Z,100679.94
2022-12-11T09:39:07.645Z,100675.63
2022-12-11T09:41:40.531Z,100675.63
2022-12-11T09:44:22.306Z,100672.72
2022-12-11T09:46:52.784Z,100670.75
2022-12-11T09:49:29.808Z,100666.19
2022-12-11T09:52:08.473Z,100663.19
2022-12-11T09:54:37.381Z,100660.72
2022-12-11T09:57:16.367Z,100649.41
2022-12-11T10:00:04.201Z,100653.22
2022-12-11T10:02:51.111Z,100655.63
2022-12-11T10:05:26.783Z,100647.13
2022-12-11T10:08:01.590Z,100648.38
2022-12-11T10:10:41.571Z,100635.56
2022-12-11T10:13:26.041Z,100628.69
2022-12-11T10:15:59.370Z,100630.22
2022-12-11T10:18:31.015Z,100621.06
2022-12-11T10:21:03.058Z,100623.81
2022-12-11T10:23:37.344Z,100619.72
2022-12-11T10:26:12.215Z,100614.63
2022-12-11T10:28:42.199Z,100624.06
2022-12-11T10:31:18.296Z,100618.41
2022-12-11T10:33:57.220Z,100612.06
2022-12-11T10:36:30.232Z,100614.75
2022-12-11T10:38:59.778Z,100614.94
2022-12-11T10:41:37.906Z,100609.63
2022-12-11T10:44:18.603Z,100604.53
2022-12-11T10:46:48.303Z,100602.31
2022-12-11T10:49:25.923Z,100607.63
2022-12-11T10:51:56.133Z,100606.22
2022-12-11T10:54:33.656Z,100600.34
2022-12-11T10:57:04.315Z,100602.13
2022-12-11T10:59:39.498Z,100604.78
2022-12-11T11:02:23.079Z,100607.69
2022-12-11T11:04:52.790Z,100594.28
2022-12-11T11:07:24.650Z,100589.06
2022-12-11T11:10:05.796Z,100585.41
2022-12-11T11:12:39.751Z,100593.94
2022-12-11T11:15:15.308Z,100594.94
2022-12-11T11:17:54.669Z,100592.63
2022-12-11T11:20:26.729Z,100585.75
2022-12-11T11:22:57.502Z,100583.44
2022-12-11T11:25:28.112Z,100577.09
2022-12-11T11:27:59.015Z,100577.88
2022-12-11T11:30:31.652Z,100575.31
2022-12-11T11:33:04.720Z,100576.09
2022-12-11T11:35:34.252Z,100566.91
2022-12-11T11:38:11.008Z,100566.91
2022-12-11T11:40:44.647Z,100560.81
2022-12-11T11:43:20.219Z,100560.47
2022-12-11T11:45:55.055Z,100557.41
2022-12-11T11:48:37.626Z,100559.41
2022-12-11T11:51:15.936Z,100552.31
2022-12-11T11:53:49.524Z,100547.88
2022-12-11T11:56:22.841Z,100554.97
2022-12-11T11:59:01.195Z,100546.75
2022-12-11T12:01:31.608Z,100543.09
2022-12-11T12:04:00.993Z,100549.22
2022-12-11T12:06:59.000Z,100544.31
2022-12-11T12:09:40.332Z,100553.00
2022-12-11T12:12:25.550Z,100535.34
2022-12-11T12:15:11.633Z,100541.47
2022-12-11T12:17:55.380Z,100545.78
2022-12-11T12:20:40.967Z,100539.00
2022-12-11T12:23:36.929Z,100542.13
2022-12-11T12:26:12.632Z,100547.47
2022-12-11T12:28:51.900Z,100538.78
2022-12-11T12:31:32.596Z,100539.94
2022-12-11T12:34:11.273Z,100545.91
2022-12-11T12:36:47.283Z,100540.38
2022-12-11T12:39:25.970Z,100547.25
2022-12-11T12:42:07.449Z,100542.03
2022-12-11T12:44:42.974Z,100535.16
2022-12-11T12:47:14.479Z,100529.28
2022-12-11T12:49:47.340Z,100530.84
2022-12-11T12:52:19.305Z,100537.72
2022-12-11T12:55:06.956Z,100534.38
2022-12-11T12:57:37.768Z,100532.84
2022-12-11T13:00:13.247Z,100530.38
2022-12-11T13:02:50.582Z,100531.28
2022-12-11T13:05:26.055Z,100518.53
2022-12-11T13:07:57.925Z,100515.53
2022-12-11T13:10:32.573Z,100516.22
2022-12-11T13:13:02.659Z,100525.63
2022-12-11T13:15:35.453Z,100520.84
2022-12-11T13:18:06.081Z,100522.84
2022-12-11T13:20:47.537Z,100521.06
2022-12-11T13:23:27.851Z,100522.72
2022-12-11T13:25:58.278Z,100518.41
2022-12-11T13:28:34.483Z,100525.50
2022-12-11T13:31:33.362Z,100516.88
2022-12-11T13:34:15.167Z,100519.84
2022-12-11T13:36:48.836Z,100521.28
2022-12-11T13:39:19.924Z,100515.88
2022-12-11T13:41:53.340Z,100525.28
2022-12-11T13:44:27.083Z,100518.41
2022-12-11T13:46:58.274Z,100515.06
2022-12-11T13:49:30.047Z,100509.97
2022-12-11T13:52:01.316Z,100511.97
2022-12-11T13:54:31.337Z,100506.22
2022-12-11T13:57:14.539Z,100508.09
2022-12-11T13:59:44.858Z,100507.06
2022-12-11T14:02:19.116Z,100513.19
2022-12-11T14:04:49.368Z,100498.88
2022-12-11T14:07:26.498Z,100506.41
2022-12-11T14:10:01.288Z,100511.44
2022-12-11T14:12:31.406Z,100506.22
2022-12-11T14:15:03.524Z,100511.44
2022-12-11T14:17:34.217Z,100504.63
2022-12-11T14:20:07.458Z,100508.88
2022-12-11T14:22:37.792Z,100510.66
2022-12-11T14:25:23.130Z,100507.19
2022-12-11T14:27:54.256Z,100507.84
2022-12-11T14:30:24.770Z,100509.84
2022-12-11T14:32:55.923Z,100511.44
2022-12-11T14:35:34.170Z,100495.78
2022-12-11T14:38:12.456Z,100498.00
2022-12-11T14:40:44.828Z,100502.88
2022-12-11T14:43:19.879Z,100499.47
2022-12-11T14:45:50.710Z,100492.66
2022-12-11T14:48:24.414Z,100490.91
2022-12-11T14:50:57.744Z,100496.66
2022-12-11T14:53:30.540Z,100497.56
2022-12-11T14:56:02.714Z,100500.56
2022-12-11T14:58:31.963Z,100503.09
2022-12-11T15:01:03.105Z,100514.09
2022-12-11T15:03:47.368Z,100500.75
2022-12-11T15:06:29.784Z,100509.63
2022-12-11T15:09:17.623Z,100503.84
2022-12-11T15:11:47.187Z,100499.66
2022-12-11T15:14:17.940Z,100502.31
2022-12-11T15:16:48.554Z,100508.28
2022-12-11T15:19:22.036Z,100503.31
2022-12-11T15:21:50.889Z,100510.84
2022-12-11T15:24:33.616Z,100512.41
2022-12-11T15:27:03.586Z,100509.63
2022-12-11T15:29:36.283Z,100513.50
2022-12-11T15:32:19.102Z,100513.50
2022-12-11T15:34:54.019Z,100514.66
2022-12-11T15:37:24.504Z,100513.50
2022-12-11T15:39:56.389Z,100509.44
2022-12-11T15:42:28.358Z,100505.19
2022-12-11T15:44:57.550Z,100506.88
2022-12-11T15:47:28.845Z,100508.28
2022-12-11T15:49:59.973Z,100503.97
2022-12-11T15:52:29.218Z,100503.97
2022-12-11T15:54:59.090Z,100501.78
2022-12-11T15:57:27.616Z,100494.91
2022-12-11T15:59:56.470Z,100503.31
2022-12-11T16:02:26.757Z,100503.09
2022-12-11T16:04:55.692Z,100512.66
2022-12-11T16:07:26.372Z,100515.50
2022-12-11T16:09:54.906Z,100515.50
2022-12-11T16:12:31.114Z,100520.63
2022-12-11T16:15:02.176Z,100520.84
2022-12-11T16:17:31.447Z,100516.53
2022-12-11T16:20:00.007Z,100516.53
2022-12-11T16:22:28.896Z,100513.75
2022-12-11T16:24:57.525Z,100510.41
2022-12-11T16:27:27.591Z,100511.31
2022-12-11T16:29:56.288Z,100511.06
2022-12-11T16:32:24.940Z,100505.97
2022-12-11T16:34:55.628Z,100504.88
2022-12-11T16:37:24.413Z,100506.63
2022-12-11T16:39:53.061Z,100510.84
2022-12-11T16:42:21.657Z,100515.09
2022-12-11T16:44:51.559Z,100504.19
2022-12-11T16:47:20.212Z,100502.63
2022-12-11T16:49:48.720Z,100504.75
2022-12-11T16:52:22.171Z,100511.63
2022-12-11T16:54:51.023Z,100507.53
2022-12-11T16:57:19.670Z,100503.41
2022-12-11T16:59:48.669Z,100500.75
2022-12-11T17:02:19.368Z,100498.09
2022-12-11T17:04:53.710Z,100500.63
2022-12-11T17:07:22.742Z,100503.66
2022-12-11T17:09:51.581Z,100493.53
2022-12-11T17:12:23.211Z,100494.78
2022-12-11T17:14:51.820Z,100497.34
2022-12-11T17:17:22.023Z,100491.88
2022-12-11T17:19:50.624Z,100494.44
2022-12-11T17:22:19.275Z,100494.91
2022-12-11T17:24:51.480Z,100492.91
2022-12-11T17:27:20.249Z,100494.66
2022-12-11T17:29:49.736Z,100500.00
2022-12-11T17:32:19.007Z,100496.66
2022-12-11T17:34:55.935Z,100492.34
2022-12-11T17:37:24.438Z,100490.47
2022-12-11T17:40:03.139Z,100486.22
2022-12-11T17:42:33.668Z,100490.56
2022-12-11T17:45:05.512Z,100494.66
2022-12-11T17:47:34.050Z,100488.59
2022-12-11T17:50:04.016Z,100490.03
2022-12-11T17:52:35.002Z,100487.56
2022-12-11T17:55:06.468Z,100498.22
2022-12-11T17:57:35.179Z,100499.56
2022-12-11T18:00:03.879Z,100491.13
2022-12-11T18:02:34.355Z,100486.91
2022-12-11T18:05:04.494Z,100493.09
2022-12-11T18:07:33.108Z,100489.38
2022-12-11T18:10:01.938Z,100491.22
2022-12-11T18:12:31.024Z,100490.03
2022-12-11T18:15:00.672Z,100489.38
2022-12-11T18:17:29.316Z,100485.13
2022-12-11T18:19:57.927Z,100482.91
2022-12-11T18:22:27.952Z,100486.22
2022-12-11T18:24:58.313Z,100489.69
2022-12-11T18:27:27.144Z,100484.69
2022-12-11T18:29:55.909Z,100487.13
2022-12-11T18:32:24.592Z,100486.03
2022-12-11T18:34:53.313Z,100492.66
2022-12-11T18:37:27.587Z,100498.78
2022-12-11T18:39:58.066Z,100499.56
2022-12-11T18:42:33.994Z,100493.69
2022-12-11T18:45:02.712Z,100492.00
2022-12-11T18:47:31.830Z,100492.00
2022-12-11T18:50:07.169Z,100493.69
2022-12-11T18:52:36.916Z,100495.22
2022-12-11T18:55:07.898Z,100494.66
2022-12-11T18:57:36.679Z,100483.00
2022-12-11T19:00:13.958Z,100481.78
2022-12-11T19:02:42.675Z,100473.28
2022-12-11T19:05:13.994Z,100488.59
2022-12-11T19:07:42.695Z,100492.00
2022-12-11T19:10:13.202Z,100488.34
2022-12-11T19:12:44.951Z,100479.38
2022-12-11T19:15:14.714Z,100487.69
2022-12-11T19:17:45.164Z,100495.88
2022-12-11T19:20:47.579Z,100486.03
2022-12-11T19:23:05.192Z,100489.47
2022-12-11T19:25:35.302Z,100486.69
2022-12-11T19:28:03.799Z,100482.69
2022-12-11T19:30:32.394Z,100495.81
2022-12-11T19:33:00.957Z,100500.91
2022-12-11T19:35:29.524Z,100501.44
2022-12-11T19:37:58.099Z,100491.56
2022-12-11T19:40:26.755Z,100495.13
2022-12-11T19:42:56.663Z,100499.34
2022-12-11T19:45:25.232Z,100501.69
2022-12-11T19:47:53.751Z,100504.91
2022-12-11T19:50:22.421Z,100498.47
2022-12-11T19:52:51.174Z,100499.22
2022-12-11T19:55:21.752Z,100502.53
2022-12-11T19:57:50.283Z,100497.44
2022-12-11T20:00:20.928Z,100499.88
2022-12-11T20:02:51.931Z,100496.47
2022-12-11T20:05:20.605Z,100497.44
2022-12-11T20:07:49.161Z,100501.22
2022-12-11T20:10:17.788Z,100500.22
2022-12-11T20:12:46.511Z,100500.25
2022-12-11T20:15:16.706Z,100501.66
2022-12-11T20:17:47.384Z,100500.44
2022-12-11T20:20:18.795Z,100496.78
2022-12-11T20:22:47.323Z,100496.66
2022-12-11T20:25:15.984Z,100493.25
2022-12-11T20:27:44.508Z,100497.56
2022-12-11T20:30:13.857Z,100495.34
2022-12-11T20:32:42.441Z,100491.81
2022-12-11T20:35:13.217Z,100498.22
2022-12-11T20:37:41.977Z,100497.56
2022-12-11T20:40:11.214Z,100497.88
2022-12-11T20:42:40.572Z,100494.78
2022-12-11T20:45:10.131Z,100489.78
2022-12-11T20:47:38.970Z,100496.00
2022-12-11T20:50:08.979Z,100495.34
2022-12-11T20:52:39.469Z,100498.13
2022-12-11T20:55:09.434Z,100493.78
2022-12-11T20:57:43.380Z,100496.91
2022-12-11T21:00:14.859Z,100493.69
2022-12-11T21:02:43.509Z,100491.03
2022-12-11T21:05:12.440Z,100494.47
2022-12-11T21:07:42.502Z,100498.47
2022-12-11T21:10:11.562Z,100494.22
2022-12-11T21:12:40.054Z,100502.91
2022-12-11T21:15:09.906Z,100500.91
2022-12-11T21:17:38.552Z,100492.47
2022-12-11T21:20:08.782Z,100497.44
2022-12-11T21:22:37.539Z,100487.72
2022-12-11T21:25:07.978Z,100496.47
2022-12-11T21:27:36.526Z,100485.47
2022-12-11T21:30:06.415Z,100484.25
2022-12-11T21:32:35.365Z,100489.59
2022-12-11T21:35:04.887Z,100487.78
2022-12-11T21:37:33.384Z,100494.34
2022-12-11T21:40:01.943Z,100488.25
2022-12-11T21:42:31.809Z,100488.16
2022-12-11T21:46:10.320Z,100490.47
2022-12-11T21:47:48.774Z,100486.94
2022-12-11T21:50:17.344Z,100487.13
2022-12-11T21:52:46.055Z,100483.59
2022-12-11T21:55:14.917Z,100479.38
2022-12-11T21:57:44.948Z,100475.03
2022-12-11T22:00:17.114Z,100472.19
2022-12-11T22:02:49.333Z,100472.50
2022-12-11T22:05:21.023Z,100470.28
2022-12-11T22:07:49.901Z,100472.38
2022-12-11T22:10:18.701Z,100464.97
2022-12-11T22:12:52.664Z,100467.41
2022-12-11T22:15:21.161Z,100468.28
2022-12-11T22:17:49.711Z,100461.19
2022-12-11T22:20:18.685Z,100462.53
2022-12-11T22:22:47.433Z,100459.66
2022-12-11T22:25:16.035Z,100468.75
2022-12-11T22:27:44.552Z,100468.53
2022-12-11T22:30:15.400Z,100466.09
2022-12-11T22:32:45.223Z,100472.06
2022-12-11T22:35:13.990Z,100469.19
2022-12-11T22:37:42.679Z,100465.72
2022-12-11T22:40:11.373Z,100470.09
2022-12-11T22:42:40.275Z,100471.63
2022-12-11T22:45:10.132Z,100482.59
2022-12-11T22:47:40.580Z,100480.47
2022-12-11T22:50:09.878Z,100490.47
2022-12-11T22:52:40.015Z,100497.34
2022-12-11T22:55:09.703Z,100492.25
2022-12-11T22:57:38.872Z,100481.16
2022-12-11T23:00:09.855Z,100490.47
2022-12-11T23:02:38.984Z,100490.56
2022-12-11T23:05:11.663Z,100486.38
2022-12-11T23:07:40.675Z,100493.22
2022-12-11T23:10:11.248Z,100488.03
2022-12-11T23:12:39.796Z,100494.00
2022-12-11T23:15:09.682Z,100491.69
2022-12-11T23:17:40.246Z,100497.56
2022-12-11T23:20:11.378Z,100497.13
2022-12-11T23:22:39.965Z,100498.69
2022-12-11T23:25:09.378Z,100496.88
2022-12-11T23:27:38.214Z,100493.47
2022-12-11T23:30:07.936Z,100492.69
2022-12-11T23:32:37.139Z,100491.13
2022-12-11T23:35:07.127Z,100496.47
2022-12-11T23:37:37.030Z,100480.16
2022-12-11T23:40:06.795Z,100480.25
2022-12-11T23:42:35.292Z,100480.94
2022-12-11T23:45:03.878Z,100485.13
2022-12-11T23:47:32.420Z,100476.81
2022-12-11T23:50:04.356Z,100479.03
2022-12-11T23:52:32.860Z,100470.28
2022-12-11T23:55:02.879Z,100477.84
2022-12-11T23:57:31.586Z,100480.03
